sensor_id;sensor_type;location;lat;lon;timestamp;temperature;humidity
10282;DHT22;5186;59.472;18.048;2023-10-09T00:00:51;2.80;99.90
10282;DHT22;5186;59.472;18.048;2023-10-09T00:03:21;2.80;99.90
10282;DHT22;5186;59.472;18.048;2023-10-09T00:05:50;2.70;99.90
10282;DHT22;5186;59.472;18.048;2023-10-09T00:08:19;2.80;99.90
10282;DHT22;5186;59.472;18.048;2023-10-09T00:10:50;2.80;99.90
10282;DHT22;5186;59.472;18.048;2023-10-09T00:13:22;2.80;99.90
10282;DHT22;5186;59.472;18.048;2023-10-09T00:16:04;2.80;99.90
10282;DHT22;5186;59.472;18.048;2023-10-09T00:18:38;2.80;99.90
10282;DHT22;5186;59.472;18.048;2023-10-09T00:21:04;2.80;99.90
10282;DHT22;5186;59.472;18.048;2023-10-09T00:23:39;2.70;99.90
10282;DHT22;5186;59.472;18.048;2023-10-09T00:26:06;2.70;99.90
10282;DHT22;5186;59.472;18.048;2023-10-09T00:28:36;2.70;99.90
10282;DHT22;5186;59.472;18.048;2023-10-09T00:31:04;2.70;99.90
10282;DHT22;5186;59.472;18.048;2023-10-09T00:33:32;2.70;99.90
10282;DHT22;5186;59.472;18.048;2023-10-09T00:36:04;2.70;99.90
10282;DHT22;5186;59.472;18.048;2023-10-09T00:38:37;2.80;99.90
10282;DHT22;5186;59.472;18.048;2023-10-09T00:41:10;2.80;99.90
10282;DHT22;5186;59.472;18.048;2023-10-09T00:43:37;2.70;99.90
10282;DHT22;5186;59.472;18.048;2023-10-09T00:46:05;2.80;99.90
10282;DHT22;5186;59.472;18.048;2023-10-09T00:48:42;2.70;99.90
10282;DHT22;5186;59.472;18.048;2023-10-09T00:51:08;2.80;99.90
10282;DHT22;5186;59.472;18.048;2023-10-09T00:53:52;2.70;99.90
10282;DHT22;5186;59.472;18.048;2023-10-09T00:56:19;2.70;99.90
10282;DHT22;5186;59.472;18.048;2023-10-09T00:58:57;2.60;99.90
10282;DHT22;5186;59.472;18.048;2023-10-09T01:01:31;2.60;99.90
10282;DHT22;5186;59.472;18.048;2023-10-09T01:04:03;2.60;99.90
10282;DHT22;5186;59.472;18.048;2023-10-09T01:06:37;2.60;99.90
10282;DHT22;5186;59.472;18.048;2023-10-09T01:09:12;2.60;99.90
10282;DHT22;5186;59.472;18.048;2023-10-09T01:11:42;2.60;99.90
10282;DHT22;5186;59.472;18.048;2023-10-09T01:14:31;2.60;99.90
10282;DHT22;5186;59.472;18.048;2023-10-09T01:17:04;2.60;99.90
10282;DHT22;5186;59.472;18.048;2023-10-09T01:19:50;2.50;99.90
10282;DHT22;5186;59.472;18.048;2023-10-09T01:22:20;2.50;99.90
10282;DHT22;5186;59.472;18.048;2023-10-09T01:24:47;2.50;99.90
10282;DHT22;5186;59.472;18.048;2023-10-09T01:27:15;2.40;99.90
10282;DHT22;5186;59.472;18.048;2023-10-09T01:29:41;2.40;99.90
10282;DHT22;5186;59.472;18.048;2023-10-09T01:32:07;2.30;99.90
10282;DHT22;5186;59.472;18.048;2023-10-09T01:34:41;2.30;99.90
10282;DHT22;5186;59.472;18.048;2023-10-09T01:37:17;2.30;99.90
10282;DHT22;5186;59.472;18.048;2023-10-09T01:39:58;2.20;99.90
10282;DHT22;5186;59.472;18.048;2023-10-09T01:42:25;2.20;99.90
10282;DHT22;5186;59.472;18.048;2023-10-09T01:45:00;2.20;99.90
10282;DHT22;5186;59.472;18.048;2023-10-09T01:47:53;2.10;99.90
10282;DHT22;5186;59.472;18.048;2023-10-09T01:50:22;2.10;99.90
10282;DHT22;5186;59.472;18.048;2023-10-09T01:52:50;2.10;99.90
10282;DHT22;5186;59.472;18.048;2023-10-09T01:55:19;2.10;99.90
10282;DHT22;5186;59.472;18.048;2023-10-09T01:58:01;2.10;99.90
10282;DHT22;5186;59.472;18.048;2023-10-09T02:00:32;2.00;99.90
10282;DHT22;5186;59.472;18.048;2023-10-09T02:03:09;2.00;99.90
10282;DHT22;5186;59.472;18.048;2023-10-09T02:05:49;2.00;99.90
10282;DHT22;5186;59.472;18.048;2023-10-09T02:08:19;2.00;99.90
10282;DHT22;5186;59.472;18.048;2023-10-09T02:10:52;2.00;99.90
10282;DHT22;5186;59.472;18.048;2023-10-09T02:13:21;2.00;99.90
10282;DHT22;5186;59.472;18.048;2023-10-09T02:15:56;2.00;99.90
10282;DHT22;5186;59.472;18.048;2023-10-09T02:18:22;2.00;99.90
10282;DHT22;5186;59.472;18.048;2023-10-09T02:20:49;2.00;99.90
10282;DHT22;5186;59.472;18.048;2023-10-09T02:23:41;2.10;99.90
10282;DHT22;5186;59.472;18.048;2023-10-09T02:26:16;2.10;99.90
10282;DHT22;5186;59.472;18.048;2023-10-09T02:28:56;2.10;99.90
10282;DHT22;5186;59.472;18.048;2023-10-09T02:31:27;2.10;99.90
10282;DHT22;5186;59.472;18.048;2023-10-09T02:34:01;2.20;99.90
10282;DHT22;5186;59.472;18.048;2023-10-09T02:36:30;2.20;99.90
10282;DHT22;5186;59.472;18.048;2023-10-09T02:38:56;2.20;99.90
10282;DHT22;5186;59.472;18.048;2023-10-09T02:41:22;2.30;99.90
10282;DHT22;5186;59.472;18.048;2023-10-09T02:43:54;2.20;99.90
10282;DHT22;5186;59.472;18.048;2023-10-09T02:46:24;2.20;99.90
10282;DHT22;5186;59.472;18.048;2023-10-09T02:48:56;2.30;99.90
10282;DHT22;5186;59.472;18.048;2023-10-09T02:51:28;2.30;99.90
10282;DHT22;5186;59.472;18.048;2023-10-09T02:53:54;2.30;99.90
10282;DHT22;5186;59.472;18.048;2023-10-09T02:56:21;2.30;99.90
10282;DHT22;5186;59.472;18.048;2023-10-09T02:58:59;2.30;99.90
10282;DHT22;5186;59.472;18.048;2023-10-09T03:01:31;2.30;99.90
10282;DHT22;5186;59.472;18.048;2023-10-09T03:03:57;2.30;99.90
10282;DHT22;5186;59.472;18.048;2023-10-09T03:06:24;2.30;99.90
10282;DHT22;5186;59.472;18.048;2023-10-09T03:08:57;2.30;99.90
10282;DHT22;5186;59.472;18.048;2023-10-09T03:11:22;2.30;99.90
10282;DHT22;5186;59.472;18.048;2023-10-09T03:13:49;2.20;99.90
10282;DHT22;5186;59.472;18.048;2023-10-09T03:16:14;2.20;99.90
10282;DHT22;5186;59.472;18.048;2023-10-09T03:18:41;2.20;99.90
10282;DHT22;5186;59.472;18.048;2023-10-09T03:21:10;2.10;99.90
10282;DHT22;5186;59.472;18.048;2023-10-09T03:23:35;2.10;99.90
10282;DHT22;5186;59.472;18.048;2023-10-09T03:26:01;2.10;99.90
10282;DHT22;5186;59.472;18.048;2023-10-09T03:28:26;2.00;99.90
10282;DHT22;5186;59.472;18.048;2023-10-09T03:30:52;2.10;99.90
10282;DHT22;5186;59.472;18.048;2023-10-09T03:33:18;2.00;99.90
10282;DHT22;5186;59.472;18.048;2023-10-09T03:35:44;2.00;99.90
10282;DHT22;5186;59.472;18.048;2023-10-09T03:38:10;2.10;99.90
10282;DHT22;5186;59.472;18.048;2023-10-09T03:40:43;2.10;99.90
10282;DHT22;5186;59.472;18.048;2023-10-09T03:43:09;2.10;99.90
10282;DHT22;5186;59.472;18.048;2023-10-09T03:45:39;2.00;99.90
10282;DHT22;5186;59.472;18.048;2023-10-09T03:48:17;2.10;99.90
10282;DHT22;5186;59.472;18.048;2023-10-09T03:50:48;2.10;99.90
10282;DHT22;5186;59.472;18.048;2023-10-09T03:53:14;2.10;99.90
10282;DHT22;5186;59.472;18.048;2023-10-09T03:55:40;2.00;99.90
10282;DHT22;5186;59.472;18.048;2023-10-09T03:58:09;2.00;99.90
10282;DHT22;5186;59.472;18.048;2023-10-09T04:00:39;2.00;99.90
10282;DHT22;5186;59.472;18.048;2023-10-09T04:03:15;2.00;99.90
10282;DHT22;5186;59.472;18.048;2023-10-09T04:05:43;2.00;99.90
10282;DHT22;5186;59.472;18.048;2023-10-09T04:08:10;2.00;99.90
10282;DHT22;5186;59.472;18.048;2023-10-09T04:10:41;1.90;99.90
10282;DHT22;5186;59.472;18.048;2023-10-09T04:13:17;1.90;99.90
10282;DHT22;5186;59.472;18.048;2023-10-09T04:15:50;1.90;99.90
10282;DHT22;5186;59.472;18.048;2023-10-09T04:18:19;1.90;99.90
10282;DHT22;5186;59.472;18.048;2023-10-09T04:20:44;1.90;99.90
10282;DHT22;5186;59.472;18.048;2023-10-09T04:23:10;1.90;99.90
10282;DHT22;5186;59.472;18.048;2023-10-09T04:25:41;1.90;99.90
10282;DHT22;5186;59.472;18.048;2023-10-09T04:28:09;1.90;99.90
10282;DHT22;5186;59.472;18.048;2023-10-09T04:30:38;1.90;99.90
10282;DHT22;5186;59.472;18.048;2023-10-09T04:33:13;1.90;99.90
10282;DHT22;5186;59.472;18.048;2023-10-09T04:36:04;1.80;99.90
10282;DHT22;5186;59.472;18.048;2023-10-09T04:38:46;1.90;99.90
10282;DHT22;5186;59.472;18.048;2023-10-09T04:41:24;1.80;99.90
10282;DHT22;5186;59.472;18.048;2023-10-09T04:44:16;1.70;99.90
10282;DHT22;5186;59.472;18.048;2023-10-09T04:46:49;1.70;99.90
10282;DHT22;5186;59.472;18.048;2023-10-09T04:49:35;1.70;99.90
10282;DHT22;5186;59.472;18.048;2023-10-09T04:52:19;1.60;99.90
10282;DHT22;5186;59.472;18.048;2023-10-09T04:55:06;1.60;99.90
10282;DHT22;5186;59.472;18.048;2023-10-09T04:57:32;1.60;99.90
10282;DHT22;5186;59.472;18.048;2023-10-09T05:00:15;1.60;99.90
10282;DHT22;5186;59.472;18.048;2023-10-09T05:02:57;1.60;99.90
10282;DHT22;5186;59.472;18.048;2023-10-09T05:05:26;1.60;99.90
10282;DHT22;5186;59.472;18.048;2023-10-09T05:08:11;1.60;99.90
10282;DHT22;5186;59.472;18.048;2023-10-09T05:10:58;1.60;99.90
10282;DHT22;5186;59.472;18.048;2023-10-09T05:13:34;1.50;99.90
10282;DHT22;5186;59.472;18.048;2023-10-09T05:16:05;1.60;99.90
10282;DHT22;5186;59.472;18.048;2023-10-09T05:18:39;1.50;99.90
10282;DHT22;5186;59.472;18.048;2023-10-09T05:21:05;1.50;99.90
10282;DHT22;5186;59.472;18.048;2023-10-09T05:23:49;1.50;99.90
10282;DHT22;5186;59.472;18.048;2023-10-09T05:26:35;1.50;99.90
10282;DHT22;5186;59.472;18.048;2023-10-09T05:29:20;1.50;99.90
10282;DHT22;5186;59.472;18.048;2023-10-09T05:32:02;1.50;99.90
10282;DHT22;5186;59.472;18.048;2023-10-09T05:34:51;1.50;99.90
10282;DHT22;5186;59.472;18.048;2023-10-09T05:39:52;1.50;99.90
10282;DHT22;5186;59.472;18.048;2023-10-09T05:42:34;1.50;99.90
10282;DHT22;5186;59.472;18.048;2023-10-09T05:45:06;1.40;99.90
10282;DHT22;5186;59.472;18.048;2023-10-09T05:47:52;1.40;99.90
10282;DHT22;5186;59.472;18.048;2023-10-09T05:50:37;1.40;99.90
10282;DHT22;5186;59.472;18.048;2023-10-09T05:53:21;1.40;99.90
10282;DHT22;5186;59.472;18.048;2023-10-09T05:56:05;1.40;99.90
10282;DHT22;5186;59.472;18.048;2023-10-09T05:58:49;1.40;99.90
10282;DHT22;5186;59.472;18.048;2023-10-09T06:01:33;1.30;99.90
10282;DHT22;5186;59.472;18.048;2023-10-09T06:04:18;1.40;99.90
10282;DHT22;5186;59.472;18.048;2023-10-09T06:06:45;1.40;99.90
10282;DHT22;5186;59.472;18.048;2023-10-09T06:09:15;1.40;99.90
10282;DHT22;5186;59.472;18.048;2023-10-09T06:11:45;1.40;99.90
10282;DHT22;5186;59.472;18.048;2023-10-09T06:14:15;1.40;99.90
10282;DHT22;5186;59.472;18.048;2023-10-09T06:16:51;1.40;99.90
10282;DHT22;5186;59.472;18.048;2023-10-09T06:19:22;1.50;99.90
10282;DHT22;5186;59.472;18.048;2023-10-09T06:21:48;1.50;99.90
10282;DHT22;5186;59.472;18.048;2023-10-09T06:24:20;1.60;99.90
10282;DHT22;5186;59.472;18.048;2023-10-09T06:26:48;1.70;99.90
10282;DHT22;5186;59.472;18.048;2023-10-09T06:29:30;1.70;99.90
10282;DHT22;5186;59.472;18.048;2023-10-09T06:32:09;1.80;99.90
10282;DHT22;5186;59.472;18.048;2023-10-09T06:34:48;1.90;99.90
10282;DHT22;5186;59.472;18.048;2023-10-09T06:37:43;2.00;99.90
10282;DHT22;5186;59.472;18.048;2023-10-09T06:40:39;2.00;99.90
10282;DHT22;5186;59.472;18.048;2023-10-09T06:43:17;2.10;99.90
10282;DHT22;5186;59.472;18.048;2023-10-09T06:45:43;2.10;99.90
10282;DHT22;5186;59.472;18.048;2023-10-09T06:48:10;2.20;99.90
10282;DHT22;5186;59.472;18.048;2023-10-09T06:50:55;2.30;99.90
10282;DHT22;5186;59.472;18.048;2023-10-09T06:53:21;2.40;99.90
10282;DHT22;5186;59.472;18.048;2023-10-09T06:55:53;2.60;99.90
10282;DHT22;5186;59.472;18.048;2023-10-09T06:58:31;2.70;99.90
10282;DHT22;5186;59.472;18.048;2023-10-09T07:01:08;2.80;99.90
10282;DHT22;5186;59.472;18.048;2023-10-09T07:03:50;2.90;99.90
10282;DHT22;5186;59.472;18.048;2023-10-09T07:06:20;3.00;99.90
10282;DHT22;5186;59.472;18.048;2023-10-09T07:09:01;3.10;99.90
10282;DHT22;5186;59.472;18.048;2023-10-09T07:11:33;3.20;99.90
10282;DHT22;5186;59.472;18.048;2023-10-09T07:14:16;3.30;99.90
10282;DHT22;5186;59.472;18.048;2023-10-09T07:17:01;3.50;99.90
10282;DHT22;5186;59.472;18.048;2023-10-09T07:19:42;3.50;99.90
10282;DHT22;5186;59.472;18.048;2023-10-09T07:22:08;3.60;99.90
10282;DHT22;5186;59.472;18.048;2023-10-09T07:24:53;3.70;99.90
10282;DHT22;5186;59.472;18.048;2023-10-09T07:27:22;3.80;99.90
10282;DHT22;5186;59.472;18.048;2023-10-09T07:30:08;3.90;99.90
10282;DHT22;5186;59.472;18.048;2023-10-09T07:32:57;4.10;99.90
10282;DHT22;5186;59.472;18.048;2023-10-09T07:35:37;4.20;99.90
10282;DHT22;5186;59.472;18.048;2023-10-09T07:38:26;4.30;99.90
10282;DHT22;5186;59.472;18.048;2023-10-09T07:40:56;4.30;99.90
10282;DHT22;5186;59.472;18.048;2023-10-09T07:43:42;4.50;99.90
10282;DHT22;5186;59.472;18.048;2023-10-09T07:46:12;4.60;99.90
10282;DHT22;5186;59.472;18.048;2023-10-09T07:49:03;4.70;99.90
10282;DHT22;5186;59.472;18.048;2023-10-09T07:51:38;4.70;99.90
10282;DHT22;5186;59.472;18.048;2023-10-09T07:54:04;4.80;99.90
10282;DHT22;5186;59.472;18.048;2023-10-09T07:56:33;4.90;99.90
10282;DHT22;5186;59.472;18.048;2023-10-09T07:59:05;5.00;99.90
10282;DHT22;5186;59.472;18.048;2023-10-09T08:01:42;5.20;99.90
10282;DHT22;5186;59.472;18.048;2023-10-09T08:04:25;5.20;99.90
10282;DHT22;5186;59.472;18.048;2023-10-09T08:07:10;5.30;99.90
10282;DHT22;5186;59.472;18.048;2023-10-09T08:09:51;5.40;99.90
10282;DHT22;5186;59.472;18.048;2023-10-09T08:12:37;5.50;99.90
10282;DHT22;5186;59.472;18.048;2023-10-09T08:15:23;5.60;99.90
10282;DHT22;5186;59.472;18.048;2023-10-09T08:17:54;5.60;99.90
10282;DHT22;5186;59.472;18.048;2023-10-09T08:20:26;5.70;99.90
10282;DHT22;5186;59.472;18.048;2023-10-09T08:22:55;5.80;99.90
10282;DHT22;5186;59.472;18.048;2023-10-09T08:25:22;5.90;99.90
10282;DHT22;5186;59.472;18.048;2023-10-09T08:27:55;5.90;99.90
10282;DHT22;5186;59.472;18.048;2023-10-09T08:30:23;6.00;99.90
10282;DHT22;5186;59.472;18.048;2023-10-09T08:32:52;6.10;99.90
10282;DHT22;5186;59.472;18.048;2023-10-09T08:35:34;6.10;99.90
10282;DHT22;5186;59.472;18.048;2023-10-09T08:38:11;6.20;99.90
10282;DHT22;5186;59.472;18.048;2023-10-09T08:40:38;6.20;99.90
10282;DHT22;5186;59.472;18.048;2023-10-09T08:43:15;6.30;99.90
10282;DHT22;5186;59.472;18.048;2023-10-09T08:45:47;6.40;99.90
10282;DHT22;5186;59.472;18.048;2023-10-09T08:48:14;6.40;99.90
10282;DHT22;5186;59.472;18.048;2023-10-09T08:50:44;6.50;99.90
10282;DHT22;5186;59.472;18.048;2023-10-09T08:53:12;6.60;99.90
10282;DHT22;5186;59.472;18.048;2023-10-09T08:55:39;6.60;99.90
10282;DHT22;5186;59.472;18.048;2023-10-09T08:58:05;6.70;99.90
10282;DHT22;5186;59.472;18.048;2023-10-09T09:00:39;6.70;99.90
10282;DHT22;5186;59.472;18.048;2023-10-09T09:03:13;6.70;99.90
10282;DHT22;5186;59.472;18.048;2023-10-09T09:05:41;6.80;99.90
10282;DHT22;5186;59.472;18.048;2023-10-09T09:08:21;6.90;99.90
10282;DHT22;5186;59.472;18.048;2023-10-09T09:10:56;7.00;99.90
10282;DHT22;5186;59.472;18.048;2023-10-09T09:13:24;7.00;99.90
10282;DHT22;5186;59.472;18.048;2023-10-09T09:15:49;7.00;99.90
10282;DHT22;5186;59.472;18.048;2023-10-09T09:18:18;7.10;99.90
10282;DHT22;5186;59.472;18.048;2023-10-09T09:20:44;7.10;99.90
10282;DHT22;5186;59.472;18.048;2023-10-09T09:23:13;7.10;99.90
10282;DHT22;5186;59.472;18.048;2023-10-09T09:25:47;7.20;99.90
10282;DHT22;5186;59.472;18.048;2023-10-09T09:28:25;7.30;99.90
10282;DHT22;5186;59.472;18.048;2023-10-09T09:31:07;7.30;99.90
10282;DHT22;5186;59.472;18.048;2023-10-09T09:33:38;7.40;99.90
10282;DHT22;5186;59.472;18.048;2023-10-09T09:36:08;7.40;99.90
10282;DHT22;5186;59.472;18.048;2023-10-09T09:38:37;7.50;99.90
10282;DHT22;5186;59.472;18.048;2023-10-09T09:41:08;7.50;99.90
10282;DHT22;5186;59.472;18.048;2023-10-09T09:43:35;7.60;99.90
10282;DHT22;5186;59.472;18.048;2023-10-09T09:46:01;7.60;99.90
10282;DHT22;5186;59.472;18.048;2023-10-09T09:48:37;7.70;99.90
10282;DHT22;5186;59.472;18.048;2023-10-09T09:51:05;7.70;99.90
10282;DHT22;5186;59.472;18.048;2023-10-09T09:53:34;7.70;99.90
10282;DHT22;5186;59.472;18.048;2023-10-09T09:56:00;7.80;99.90
10282;DHT22;5186;59.472;18.048;2023-10-09T09:58:28;7.80;99.90
10282;DHT22;5186;59.472;18.048;2023-10-09T10:01:09;7.90;99.90
10282;DHT22;5186;59.472;18.048;2023-10-09T10:03:58;7.90;99.90
10282;DHT22;5186;59.472;18.048;2023-10-09T10:06:25;8.00;99.90
10282;DHT22;5186;59.472;18.048;2023-10-09T10:08:52;8.00;99.90
10282;DHT22;5186;59.472;18.048;2023-10-09T10:11:44;8.00;99.90
10282;DHT22;5186;59.472;18.048;2023-10-09T10:14:13;8.10;99.90
10282;DHT22;5186;59.472;18.048;2023-10-09T10:17:07;8.10;99.90
10282;DHT22;5186;59.472;18.048;2023-10-09T10:20:06;8.20;99.90
10282;DHT22;5186;59.472;18.048;2023-10-09T10:22:44;8.20;99.90
10282;DHT22;5186;59.472;18.048;2023-10-09T10:28:20;8.30;99.90
10282;DHT22;5186;59.472;18.048;2023-10-09T10:31:08;8.30;99.90
10282;DHT22;5186;59.472;18.048;2023-10-09T10:36:21;8.40;99.90
10282;DHT22;5186;59.472;18.048;2023-10-09T10:39:05;8.40;99.90
10282;DHT22;5186;59.472;18.048;2023-10-09T10:41:55;8.50;99.90
10282;DHT22;5186;59.472;18.048;2023-10-09T10:44:31;8.50;99.90
10282;DHT22;5186;59.472;18.048;2023-10-09T10:47:09;8.60;99.90
10282;DHT22;5186;59.472;18.048;2023-10-09T10:49:51;8.60;99.90
10282;DHT22;5186;59.472;18.048;2023-10-09T10:52:24;8.70;99.90
10282;DHT22;5186;59.472;18.048;2023-10-09T10:55:08;8.70;99.90
10282;DHT22;5186;59.472;18.048;2023-10-09T10:57:43;8.70;99.90
10282;DHT22;5186;59.472;18.048;2023-10-09T11:00:28;8.80;99.90
10282;DHT22;5186;59.472;18.048;2023-10-09T11:03:21;8.80;99.90
10282;DHT22;5186;59.472;18.048;2023-10-09T11:06:30;8.90;99.90
10282;DHT22;5186;59.472;18.048;2023-10-09T11:09:04;8.90;99.90
10282;DHT22;5186;59.472;18.048;2023-10-09T11:12:04;8.90;99.90
10282;DHT22;5186;59.472;18.048;2023-10-09T11:14:47;9.00;99.90
10282;DHT22;5186;59.472;18.048;2023-10-09T11:17:35;9.00;99.90
10282;DHT22;5186;59.472;18.048;2023-10-09T11:20:05;9.10;99.90
10282;DHT22;5186;59.472;18.048;2023-10-09T11:22:57;9.10;99.90
10282;DHT22;5186;59.472;18.048;2023-10-09T11:25:45;9.10;99.90
10282;DHT22;5186;59.472;18.048;2023-10-09T11:28:21;9.20;99.90
10282;DHT22;5186;59.472;18.048;2023-10-09T11:31:16;9.20;99.90
10282;DHT22;5186;59.472;18.048;2023-10-09T11:33:51;9.30;99.90
10282;DHT22;5186;59.472;18.048;2023-10-09T11:36:21;9.30;99.90
10282;DHT22;5186;59.472;18.048;2023-10-09T11:38:57;9.40;99.90
10282;DHT22;5186;59.472;18.048;2023-10-09T11:41:42;9.50;99.90
10282;DHT22;5186;59.472;18.048;2023-10-09T11:44:10;9.50;99.90
10282;DHT22;5186;59.472;18.048;2023-10-09T11:47:00;9.50;99.90
10282;DHT22;5186;59.472;18.048;2023-10-09T11:49:49;9.60;99.90
10282;DHT22;5186;59.472;18.048;2023-10-09T11:52:22;9.60;99.90
10282;DHT22;5186;59.472;18.048;2023-10-09T11:54:57;9.60;99.90
10282;DHT22;5186;59.472;18.048;2023-10-09T11:57:24;9.70;99.90
10282;DHT22;5186;59.472;18.048;2023-10-09T11:59:57;9.70;99.90
10282;DHT22;5186;59.472;18.048;2023-10-09T12:02:23;9.70;99.90
10282;DHT22;5186;59.472;18.048;2023-10-09T12:04:49;9.80;99.90
10282;DHT22;5186;59.472;18.048;2023-10-09T12:07:15;9.70;99.90
10282;DHT22;5186;59.472;18.048;2023-10-09T12:09:40;9.80;99.90
10282;DHT22;5186;59.472;18.048;2023-10-09T12:12:07;9.80;99.90
10282;DHT22;5186;59.472;18.048;2023-10-09T12:14:36;9.80;99.90
10282;DHT22;5186;59.472;18.048;2023-10-09T12:17:05;9.80;99.90
10282;DHT22;5186;59.472;18.048;2023-10-09T12:19:36;9.90;99.90
10282;DHT22;5186;59.472;18.048;2023-10-09T12:22:03;9.90;99.90
10282;DHT22;5186;59.472;18.048;2023-10-09T12:24:34;9.90;99.90
10282;DHT22;5186;59.472;18.048;2023-10-09T12:27:00;9.90;99.90
10282;DHT22;5186;59.472;18.048;2023-10-09T12:29:26;10.00;99.90
10282;DHT22;5186;59.472;18.048;2023-10-09T12:31:58;10.00;99.90
10282;DHT22;5186;59.472;18.048;2023-10-09T12:34:27;10.00;99.90
10282;DHT22;5186;59.472;18.048;2023-10-09T12:36:56;10.10;99.90
10282;DHT22;5186;59.472;18.048;2023-10-09T12:39:26;10.10;99.90
10282;DHT22;5186;59.472;18.048;2023-10-09T12:41:58;10.10;99.90
10282;DHT22;5186;59.472;18.048;2023-10-09T12:44:34;10.10;99.90
10282;DHT22;5186;59.472;18.048;2023-10-09T12:47:07;10.20;99.90
10282;DHT22;5186;59.472;18.048;2023-10-09T12:49:32;10.20;99.90
10282;DHT22;5186;59.472;18.048;2023-10-09T12:51:58;10.20;99.90
10282;DHT22;5186;59.472;18.048;2023-10-09T12:54:27;10.20;99.90
10282;DHT22;5186;59.472;18.048;2023-10-09T12:56:54;10.20;99.90
10282;DHT22;5186;59.472;18.048;2023-10-09T12:59:20;10.20;99.90
10282;DHT22;5186;59.472;18.048;2023-10-09T13:01:46;10.20;99.90
10282;DHT22;5186;59.472;18.048;2023-10-09T13:04:17;10.20;99.90
10282;DHT22;5186;59.472;18.048;2023-10-09T13:06:45;10.30;99.90
10282;DHT22;5186;59.472;18.048;2023-10-09T13:09:17;10.30;99.90
10282;DHT22;5186;59.472;18.048;2023-10-09T13:11:58;10.30;99.90
10282;DHT22;5186;59.472;18.048;2023-10-09T13:14:28;10.30;99.90
10282;DHT22;5186;59.472;18.048;2023-10-09T13:16:59;10.40;99.90
10282;DHT22;5186;59.472;18.048;2023-10-09T13:19:24;10.40;99.90
10282;DHT22;5186;59.472;18.048;2023-10-09T13:21:50;10.40;99.90
10282;DHT22;5186;59.472;18.048;2023-10-09T13:24:16;10.40;99.90
10282;DHT22;5186;59.472;18.048;2023-10-09T13:26:43;10.40;99.90
10282;DHT22;5186;59.472;18.048;2023-10-09T13:29:12;10.50;99.90
10282;DHT22;5186;59.472;18.048;2023-10-09T13:31:39;10.40;99.90
10282;DHT22;5186;59.472;18.048;2023-10-09T13:34:12;10.40;99.90
10282;DHT22;5186;59.472;18.048;2023-10-09T13:36:41;10.40;99.90
10282;DHT22;5186;59.472;18.048;2023-10-09T13:39:10;10.40;99.90
10282;DHT22;5186;59.472;18.048;2023-10-09T13:41:58;10.40;99.90
10282;DHT22;5186;59.472;18.048;2023-10-09T13:44:28;10.40;99.90
10282;DHT22;5186;59.472;18.048;2023-10-09T13:46:58;10.40;99.90
10282;DHT22;5186;59.472;18.048;2023-10-09T13:49:24;10.40;99.90
10282;DHT22;5186;59.472;18.048;2023-10-09T13:51:55;10.40;99.90
10282;DHT22;5186;59.472;18.048;2023-10-09T13:54:22;10.50;99.90
10282;DHT22;5186;59.472;18.048;2023-10-09T13:57:05;10.40;99.90
10282;DHT22;5186;59.472;18.048;2023-10-09T13:59:32;10.40;99.90
10282;DHT22;5186;59.472;18.048;2023-10-09T14:02:00;10.40;99.90
10282;DHT22;5186;59.472;18.048;2023-10-09T14:04:28;10.50;99.90
10282;DHT22;5186;59.472;18.048;2023-10-09T14:06:53;10.50;99.90
10282;DHT22;5186;59.472;18.048;2023-10-09T14:09:31;10.60;99.90
10282;DHT22;5186;59.472;18.048;2023-10-09T14:11:58;10.60;99.90
10282;DHT22;5186;59.472;18.048;2023-10-09T14:14:37;10.60;99.90
10282;DHT22;5186;59.472;18.048;2023-10-09T14:17:18;10.70;99.90
10282;DHT22;5186;59.472;18.048;2023-10-09T14:19:57;10.70;99.90
10282;DHT22;5186;59.472;18.048;2023-10-09T14:22:41;10.70;99.90
10282;DHT22;5186;59.472;18.048;2023-10-09T14:25:07;10.80;99.90
10282;DHT22;5186;59.472;18.048;2023-10-09T14:27:40;10.70;99.90
10282;DHT22;5186;59.472;18.048;2023-10-09T14:30:06;10.70;99.90
10282;DHT22;5186;59.472;18.048;2023-10-09T14:32:38;10.70;99.90
10282;DHT22;5186;59.472;18.048;2023-10-09T14:35:13;10.70;99.90
10282;DHT22;5186;59.472;18.048;2023-10-09T14:37:39;10.70;99.90
10282;DHT22;5186;59.472;18.048;2023-10-09T14:40:06;10.70;99.90
10282;DHT22;5186;59.472;18.048;2023-10-09T14:42:39;10.60;99.90
10282;DHT22;5186;59.472;18.048;2023-10-09T14:45:10;10.60;99.90
10282;DHT22;5186;59.472;18.048;2023-10-09T14:47:41;10.60;99.90
10282;DHT22;5186;59.472;18.048;2023-10-09T14:50:07;10.60;99.90
10282;DHT22;5186;59.472;18.048;2023-10-09T14:52:34;10.60;99.90
10282;DHT22;5186;59.472;18.048;2023-10-09T14:55:04;10.60;99.90
10282;DHT22;5186;59.472;18.048;2023-10-09T14:57:30;10.60;99.90
10282;DHT22;5186;59.472;18.048;2023-10-09T15:00:02;10.60;99.90
10282;DHT22;5186;59.472;18.048;2023-10-09T15:02:33;10.60;99.90
10282;DHT22;5186;59.472;18.048;2023-10-09T15:04:58;10.60;99.90
10282;DHT22;5186;59.472;18.048;2023-10-09T15:07:24;10.50;99.90
10282;DHT22;5186;59.472;18.048;2023-10-09T15:09:50;10.50;99.90
10282;DHT22;5186;59.472;18.048;2023-10-09T15:12:16;10.50;99.90
10282;DHT22;5186;59.472;18.048;2023-10-09T15:14:41;10.50;99.90
10282;DHT22;5186;59.472;18.048;2023-10-09T15:17:08;10.40;99.90
10282;DHT22;5186;59.472;18.048;2023-10-09T15:19:34;10.40;99.90
10282;DHT22;5186;59.472;18.048;2023-10-09T15:22:00;10.30;99.90
10282;DHT22;5186;59.472;18.048;2023-10-09T15:24:26;10.30;99.90
10282;DHT22;5186;59.472;18.048;2023-10-09T15:26:53;10.20;99.90
10282;DHT22;5186;59.472;18.048;2023-10-09T15:29:26;10.20;99.90
10282;DHT22;5186;59.472;18.048;2023-10-09T15:31:57;10.10;99.90
10282;DHT22;5186;59.472;18.048;2023-10-09T15:34:30;10.00;99.90
10282;DHT22;5186;59.472;18.048;2023-10-09T15:36:56;9.90;99.90
10282;DHT22;5186;59.472;18.048;2023-10-09T15:39:22;9.80;99.90
10282;DHT22;5186;59.472;18.048;2023-10-09T15:41:49;9.70;99.90
10282;DHT22;5186;59.472;18.048;2023-10-09T15:44:16;9.70;99.90
10282;DHT22;5186;59.472;18.048;2023-10-09T15:46:42;9.70;99.90
10282;DHT22;5186;59.472;18.048;2023-10-09T15:49:11;9.60;99.90
10282;DHT22;5186;59.472;18.048;2023-10-09T15:51:38;9.60;99.90
10282;DHT22;5186;59.472;18.048;2023-10-09T15:54:04;9.50;99.90
10282;DHT22;5186;59.472;18.048;2023-10-09T15:56:29;9.40;99.90
10282;DHT22;5186;59.472;18.048;2023-10-09T15:58:55;9.30;99.90
10282;DHT22;5186;59.472;18.048;2023-10-09T16:01:21;9.30;99.90
10282;DHT22;5186;59.472;18.048;2023-10-09T16:03:48;9.20;99.90
10282;DHT22;5186;59.472;18.048;2023-10-09T16:06:14;9.20;99.90
10282;DHT22;5186;59.472;18.048;2023-10-09T16:08:46;9.10;99.90
10282;DHT22;5186;59.472;18.048;2023-10-09T16:11:21;9.00;99.90
10282;DHT22;5186;59.472;18.048;2023-10-09T16:13:51;9.00;99.90
10282;DHT22;5186;59.472;18.048;2023-10-09T16:16:29;8.90;99.90
10282;DHT22;5186;59.472;18.048;2023-10-09T16:18:58;8.80;99.90
10282;DHT22;5186;59.472;18.048;2023-10-09T16:21:24;8.70;99.90
10282;DHT22;5186;59.472;18.048;2023-10-09T16:23:51;8.70;99.90
10282;DHT22;5186;59.472;18.048;2023-10-09T16:26:17;8.70;99.90
10282;DHT22;5186;59.472;18.048;2023-10-09T16:28:43;8.60;99.90